createdAt,value
2022-10-11T00:01:38.508Z,138.43
2022-10-11T00:04:06.299Z,137.60
2022-10-11T00:06:34.086Z,138.30
2022-10-11T00:09:03.191Z,137.80
2022-10-11T00:11:30.999Z,137.97
2022-10-11T00:13:58.925Z,138.40
2022-10-11T00:16:26.746Z,137.37
2022-10-11T00:18:54.554Z,137.80
2022-10-11T00:21:22.642Z,138.23
2022-10-11T00:23:50.798Z,138.03
2022-10-11T00:26:19.882Z,137.43
2022-10-11T00:28:47.878Z,138.10
2022-10-11T00:31:16.632Z,138.03
2022-10-11T00:33:44.485Z,137.83
2022-10-11T00:36:14.376Z,137.27
2022-10-11T00:38:42.492Z,138.13
2022-10-11T00:41:10.730Z,137.33
2022-10-11T00:43:40.398Z,137.43
2022-10-11T00:46:27.738Z,137.77
2022-10-11T00:49:00.830Z,137.13
2022-10-11T00:51:38.670Z,137.00
2022-10-11T00:54:08.527Z,137.23
2022-10-11T00:56:39.968Z,136.93
2022-10-11T00:59:15.027Z,137.57
2022-10-11T01:01:42.912Z,137.17
2022-10-11T01:04:10.838Z,137.20
2022-10-11T01:06:38.640Z,136.97
2022-10-11T01:09:06.519Z,136.97
2022-10-11T01:11:37.257Z,137.00
2022-10-11T01:14:30.083Z,137.37
2022-10-11T01:17:04.510Z,137.07
2022-10-11T01:19:52.191Z,137.67
2022-10-11T01:22:37.479Z,136.93
2022-10-11T01:25:20.015Z,137.23
2022-10-11T01:28:02.919Z,137.03
2022-10-11T01:30:34.037Z,136.77
2022-10-11T01:33:13.973Z,136.77
2022-10-11T01:35:49.286Z,136.67
2022-10-11T01:38:24.522Z,137.07
2022-10-11T01:40:57.098Z,137.30
2022-10-11T01:43:26.981Z,136.67
2022-10-11T01:45:58.821Z,136.20
2022-10-11T01:48:26.707Z,136.37
2022-10-11T01:50:56.814Z,137.07
2022-10-11T01:53:47.025Z,137.17
2022-10-11T01:56:23.552Z,136.90
2022-10-11T01:59:07.960Z,136.20
2022-10-11T02:01:49.915Z,137.10
2022-10-11T02:04:28.306Z,136.53
2022-10-11T02:07:01.638Z,136.67
2022-10-11T02:09:37.086Z,136.60
2022-10-11T02:12:09.351Z,137.10
2022-10-11T02:14:42.261Z,136.30
2022-10-11T02:17:15.139Z,136.93
2022-10-11T02:19:46.375Z,136.60
2022-10-11T02:22:19.743Z,136.67
2022-10-11T02:24:50.326Z,136.90
2022-10-11T02:27:22.820Z,136.23
2022-10-11T02:29:53.896Z,136.87
2022-10-11T02:32:26.427Z,136.83
2022-10-11T02:34:56.662Z,136.73
2022-10-11T02:37:32.047Z,136.27
2022-10-11T02:40:05.844Z,136.53
2022-10-11T02:42:37.942Z,136.67
2022-10-11T02:45:11.680Z,136.47
2022-10-11T02:47:42.230Z,135.97
2022-10-11T02:50:12.019Z,136.70
2022-10-11T02:52:39.908Z,136.43
2022-10-11T02:55:09.604Z,136.33
2022-10-11T02:57:37.423Z,136.63
2022-10-11T03:00:06.072Z,136.20
2022-10-11T03:02:33.980Z,136.20
2022-10-11T03:05:03.278Z,136.47
2022-10-11T03:07:31.077Z,135.97
2022-10-11T03:09:58.915Z,136.40
2022-10-11T03:12:26.742Z,136.67
2022-10-11T03:14:54.586Z,135.80
2022-10-11T03:17:36.019Z,136.47
2022-10-11T03:20:07.204Z,135.47
2022-10-11T03:22:35.063Z,136.63
2022-10-11T03:25:04.589Z,135.93
2022-10-11T03:27:32.751Z,136.10
2022-10-11T03:30:00.632Z,136.57
2022-10-11T03:32:28.451Z,136.17
2022-10-11T03:34:56.292Z,135.90
2022-10-11T03:37:25.715Z,136.30
2022-10-11T03:39:53.878Z,136.17
2022-10-11T03:42:22.013Z,136.33
2022-10-11T03:44:51.805Z,136.77
2022-10-11T03:47:19.957Z,137.20
2022-10-11T03:49:47.819Z,136.57
2022-10-11T03:52:15.618Z,136.50
2022-10-11T03:54:44.836Z,136.20
2022-10-11T03:57:12.614Z,136.43
2022-10-11T03:59:40.363Z,135.90
2022-10-11T04:02:08.197Z,137.37
2022-10-11T04:04:37.512Z,137.10
2022-10-11T04:07:05.277Z,137.40
2022-10-11T04:09:33.129Z,136.73
2022-10-11T04:12:02.375Z,137.33
2022-10-11T04:14:30.310Z,136.53
2022-10-11T04:17:00.404Z,136.90
2022-10-11T04:19:28.831Z,137.00
2022-10-11T04:21:57.068Z,137.53
2022-10-11T04:24:24.894Z,137.20
2022-10-11T04:26:52.722Z,136.67
2022-10-11T04:29:22.252Z,137.40
2022-10-11T04:31:50.112Z,137.17
2022-10-11T04:34:18.036Z,137.57
2022-10-11T04:36:49.760Z,137.67
2022-10-11T04:39:18.225Z,137.10
2022-10-11T04:41:46.047Z,136.77
2022-10-11T04:44:13.848Z,137.43
2022-10-11T04:46:43.129Z,137.03
2022-10-11T04:49:10.960Z,137.73
2022-10-11T04:51:38.809Z,137.27
2022-10-11T04:54:06.696Z,136.93
2022-10-11T04:56:34.604Z,137.27
2022-10-11T04:59:02.376Z,137.33
2022-10-11T05:01:30.203Z,137.47
2022-10-11T05:03:59.349Z,137.73
2022-10-11T05:06:27.358Z,136.77
2022-10-11T05:08:55.183Z,137.57
2022-10-11T05:11:23.293Z,137.57
2022-10-11T05:13:51.077Z,137.27
2022-10-11T05:16:19.063Z,137.73
2022-10-11T05:18:46.844Z,137.40
2022-10-11T05:21:18.896Z,137.47
2022-10-11T05:23:47.791Z,137.03
2022-10-11T05:26:15.889Z,137.13
2022-10-11T05:28:44.286Z,137.20
2022-10-11T05:31:12.530Z,137.30
2022-10-11T05:33:40.336Z,137.80
2022-10-11T05:36:09.380Z,138.10
2022-10-11T05:38:39.334Z,137.00
2022-10-11T05:41:09.172Z,136.97
2022-10-11T05:43:37.458Z,136.83
2022-10-11T05:46:05.765Z,137.27
2022-10-11T05:48:34.198Z,137.40
2022-10-11T05:51:03.222Z,137.30
2022-10-11T05:53:31.106Z,137.30
2022-10-11T05:56:00.484Z,137.00
2022-10-11T05:58:28.808Z,137.47
2022-10-11T06:00:57.625Z,137.20
2022-10-11T06:03:25.457Z,136.90
2022-10-11T06:05:56.750Z,137.03
2022-10-11T06:08:24.903Z,136.03
2022-10-11T06:10:52.678Z,135.53
2022-10-11T06:13:21.788Z,135.50
2022-10-11T06:15:49.560Z,135.20
2022-10-11T06:18:17.363Z,134.63
2022-10-11T06:20:45.136Z,134.40
2022-10-11T06:23:12.966Z,134.53
2022-10-11T06:25:40.750Z,134.40
2022-10-11T06:28:08.606Z,135.60
2022-10-11T06:30:39.728Z,134.53
2022-10-11T06:33:07.549Z,134.57
2022-10-11T06:35:35.311Z,134.77
2022-10-11T06:38:03.097Z,134.20
2022-10-11T06:40:30.889Z,134.27
2022-10-11T06:42:58.690Z,134.13
2022-10-11T06:45:26.481Z,134.13
2022-10-11T06:47:55.612Z,134.27
2022-10-11T06:50:47.081Z,134.50
2022-10-11T06:53:11.535Z,134.30
2022-10-11T06:55:39.307Z,134.43
2022-10-11T06:58:07.118Z,134.60
2022-10-11T07:00:34.924Z,134.20
2022-10-11T07:03:04.497Z,133.53
2022-10-11T07:05:34.612Z,134.27
2022-10-11T07:08:02.488Z,134.90
2022-10-11T07:10:30.259Z,134.20
2022-10-11T07:12:58.031Z,134.63
2022-10-11T07:15:25.804Z,133.97
2022-10-11T07:17:53.603Z,134.37
2022-10-11T07:20:22.726Z,133.83
2022-10-11T07:22:50.511Z,134.90
2022-10-11T07:25:18.455Z,134.40
2022-10-11T07:27:46.234Z,135.27
2022-10-11T07:30:14.292Z,134.80
2022-10-11T07:32:42.108Z,135.53
2022-10-11T07:35:10.114Z,135.57
2022-10-11T07:37:39.256Z,135.83
2022-10-11T07:40:10.779Z,136.20
2022-10-11T07:42:38.668Z,136.23
2022-10-11T07:45:07.206Z,136.23
2022-10-11T07:47:35.026Z,136.67
2022-10-11T07:50:02.896Z,137.53
2022-10-11T07:52:30.700Z,137.77
2022-10-11T07:54:59.802Z,137.40
2022-10-11T07:57:27.612Z,138.83
2022-10-11T07:59:55.378Z,138.30
2022-10-11T08:02:23.136Z,138.60
2022-10-11T08:04:50.926Z,139.00
2022-10-11T08:07:18.732Z,138.60
2022-10-11T08:09:46.499Z,139.77
2022-10-11T08:12:15.672Z,138.77
2022-10-11T08:14:43.450Z,138.73
2022-10-11T08:17:11.232Z,140.07
2022-10-11T08:19:39.010Z,139.80
2022-10-11T08:22:07.008Z,139.97
2022-10-11T08:24:38.281Z,140.13
2022-10-11T08:27:06.599Z,139.63
2022-10-11T08:29:35.737Z,140.83
2022-10-11T08:32:03.516Z,140.50
2022-10-11T08:34:31.312Z,141.73
2022-10-11T08:36:59.088Z,140.50
2022-10-11T08:39:26.853Z,141.40
2022-10-11T08:41:56.794Z,141.27
2022-10-11T08:45:05.477Z,142.00
2022-10-11T08:47:31.442Z,141.57
2022-10-11T08:50:00.504Z,141.23
2022-10-11T08:52:32.082Z,141.67
2022-10-11T08:55:05.543Z,142.03
2022-10-11T08:57:36.867Z,141.80
2022-10-11T09:00:08.566Z,141.60
2022-10-11T09:03:07.092Z,141.00
2022-10-11T09:05:35.949Z,141.17
2022-10-11T09:08:11.411Z,142.03
2022-10-11T09:11:04.063Z,141.77
2022-10-11T09:13:58.669Z,141.57
2022-10-11T09:16:37.525Z,142.37
2022-10-11T09:19:22.982Z,141.67
2022-10-11T09:22:00.403Z,141.43
2022-10-11T09:24:37.864Z,141.17
2022-10-11T09:27:13.828Z,141.03
2022-10-11T09:29:51.947Z,141.17
2022-10-11T09:32:21.930Z,140.63
2022-10-11T09:34:56.599Z,141.17
2022-10-11T09:37:30.373Z,141.07
2022-10-11T09:40:04.669Z,140.47
2022-10-11T09:42:32.450Z,140.70
2022-10-11T09:45:02.830Z,140.90
2022-10-11T09:47:32.924Z,141.07
2022-10-11T09:50:03.936Z,140.60
2022-10-11T09:52:32.068Z,140.33
2022-10-11T09:55:01.372Z,140.70
2022-10-11T09:57:31.408Z,140.77
2022-10-11T10:00:02.259Z,139.97
2022-10-11T10:02:46.776Z,140.37
2022-10-11T10:05:18.597Z,139.70
2022-10-11T10:08:08.000Z,140.57
2022-10-11T10:10:39.603Z,140.47
2022-10-11T10:13:20.027Z,140.20
2022-10-11T10:15:50.766Z,139.73
2022-10-11T10:18:24.607Z,140.67
2022-10-11T10:20:54.936Z,140.33
2022-10-11T10:23:25.768Z,140.23
2022-10-11T10:26:09.566Z,140.03
2022-10-11T10:28:37.694Z,140.40
2022-10-11T10:31:05.509Z,140.50
2022-10-11T10:33:35.850Z,140.37
2022-10-11T10:36:09.351Z,141.03
2022-10-11T10:38:41.630Z,140.90
2022-10-11T10:41:13.407Z,141.20
2022-10-11T10:43:43.112Z,140.80
2022-10-11T10:46:27.235Z,141.10
2022-10-11T10:52:03.022Z,140.17
2022-10-11T10:54:41.225Z,140.53
2022-10-11T10:57:19.058Z,140.83
2022-10-11T11:00:06.104Z,140.20
2022-10-11T11:02:41.811Z,140.60
2022-10-11T11:05:26.950Z,140.60
2022-10-11T11:08:04.229Z,140.37
2022-10-11T11:10:37.894Z,140.23
2022-10-11T11:13:19.779Z,140.67
2022-10-11T11:15:53.599Z,139.57
2022-10-11T11:18:29.909Z,139.90
2022-10-11T11:21:19.786Z,140.27
2022-10-11T11:23:56.762Z,140.00
2022-10-11T11:26:33.616Z,140.27
2022-10-11T11:29:12.196Z,141.03
2022-10-11T11:31:58.038Z,141.03
2022-10-11T11:34:29.430Z,141.00
2022-10-11T11:37:02.822Z,141.77
2022-10-11T11:39:35.840Z,141.00
2022-10-11T11:42:10.455Z,140.87
2022-10-11T11:44:42.392Z,140.63
2022-10-11T11:47:17.723Z,140.27
2022-10-11T11:49:50.214Z,140.97
2022-10-11T11:52:27.390Z,140.43
2022-10-11T11:55:04.238Z,140.03
2022-10-11T11:57:42.164Z,140.23
2022-10-11T12:00:16.760Z,139.77
2022-10-11T12:02:49.790Z,139.40
2022-10-11T12:05:21.482Z,139.50
2022-10-11T12:07:55.544Z,139.73
2022-10-11T12:10:30.236Z,140.03
2022-10-11T12:13:19.938Z,139.97
2022-10-11T12:16:10.081Z,138.93
2022-10-11T12:18:50.592Z,138.87
2022-10-11T12:21:23.169Z,139.03
2022-10-11T12:23:53.654Z,139.80
2022-10-11T12:26:43.283Z,138.63
2022-10-11T12:29:45.927Z,139.53
2022-10-11T12:32:51.023Z,139.33
2022-10-11T12:36:04.020Z,139.20
2022-10-11T12:38:37.676Z,138.87
2022-10-11T12:41:50.675Z,139.13
2022-10-11T12:44:23.903Z,139.03
2022-10-11T12:47:14.246Z,138.67
2022-10-11T12:49:56.783Z,139.20
2022-10-11T12:52:35.397Z,139.33
2022-10-11T12:55:30.534Z,138.33
2022-10-11T12:58:28.618Z,138.60
2022-10-11T13:01:12.848Z,138.17
2022-10-11T13:03:43.420Z,138.57
2022-10-11T13:06:15.010Z,139.20
2022-10-11T13:08:46.324Z,138.03
2022-10-11T13:11:19.999Z,138.70
2022-10-11T13:13:54.061Z,139.27
2022-10-11T13:16:25.089Z,137.90
2022-10-11T13:18:58.432Z,138.53
2022-10-11T13:21:30.573Z,137.83
2022-10-11T13:24:01.108Z,138.80
2022-10-11T13:26:31.457Z,138.40
2022-10-11T13:29:01.302Z,139.03
2022-10-11T13:31:29.629Z,138.87
2022-10-11T13:33:59.890Z,138.80
2022-10-11T13:36:28.534Z,138.77
2022-10-11T13:38:58.680Z,138.63
2022-10-11T13:41:28.100Z,138.90
2022-10-11T13:43:57.745Z,139.30
2022-10-11T13:46:28.829Z,138.23
2022-10-11T13:49:01.566Z,138.87
2022-10-11T13:51:33.119Z,139.20
2022-10-11T13:54:03.191Z,138.83
2022-10-11T13:56:33.625Z,138.90
2022-10-11T13:59:02.043Z,139.50
2022-10-11T14:01:39.325Z,138.73
2022-10-11T14:04:09.896Z,139.13
2022-10-11T14:06:47.239Z,138.73
2022-10-11T14:09:21.636Z,139.27
2022-10-11T14:11:49.946Z,139.23
2022-10-11T14:14:41.889Z,138.77
2022-10-11T14:17:17.156Z,138.83
2022-10-11T14:19:46.014Z,138.53
2022-10-11T14:22:16.419Z,138.67
2022-10-11T14:24:47.258Z,138.67
2022-10-11T14:27:19.216Z,138.90
2022-10-11T14:30:00.491Z,138.97
2022-10-11T14:32:37.244Z,139.13
2022-10-11T14:35:05.726Z,138.70
2022-10-11T14:37:33.574Z,138.33
2022-10-11T14:40:01.356Z,139.33
2022-10-11T14:42:29.156Z,139.07
2022-10-11T14:44:56.948Z,138.93
2022-10-11T14:47:24.755Z,138.77
2022-10-11T14:49:53.874Z,138.00
2022-10-11T14:52:21.687Z,138.40
2022-10-11T14:54:49.474Z,138.77
2022-10-11T14:57:17.252Z,138.57
2022-10-11T14:59:45.100Z,138.93
2022-10-11T15:02:13.116Z,138.77
2022-10-11T15:04:40.964Z,138.53
2022-10-11T15:07:13.818Z,138.50
2022-10-11T15:09:41.655Z,138.93
2022-10-11T15:12:10.490Z,138.40
2022-10-11T15:14:38.308Z,138.30
2022-10-11T15:17:06.086Z,138.13
2022-10-11T15:19:33.914Z,138.03
2022-10-11T15:22:04.204Z,137.97
2022-10-11T15:24:33.348Z,137.80
2022-10-11T15:27:01.112Z,138.10
2022-10-11T15:29:29.117Z,138.47
2022-10-11T15:31:56.900Z,138.67
2022-10-11T15:34:24.703Z,137.50
2022-10-11T15:36:52.472Z,137.97
2022-10-11T15:39:30.492Z,138.03
2022-10-11T15:42:00.258Z,137.93
2022-10-11T15:44:28.099Z,137.53
2022-10-11T15:46:55.919Z,137.67
2022-10-11T15:49:23.813Z,138.43
2022-10-11T15:51:51.599Z,138.27
2022-10-11T15:54:19.420Z,138.57
2022-10-11T15:56:47.660Z,137.77
2022-10-11T15:59:16.755Z,137.77
2022-10-11T16:01:44.577Z,137.90
2022-10-11T16:04:12.382Z,138.30
2022-10-11T16:06:40.929Z,137.37
2022-10-11T16:09:08.770Z,137.30
2022-10-11T16:11:36.584Z,137.73
2022-10-11T16:14:04.511Z,136.80
2022-10-11T16:16:33.685Z,137.50
2022-10-11T16:19:01.437Z,137.27
2022-10-11T16:21:29.361Z,138.20
2022-10-11T16:23:57.137Z,137.60
2022-10-11T16:26:24.948Z,137.33
2022-10-11T16:28:52.769Z,137.03
2022-10-11T16:31:21.036Z,137.40
2022-10-11T16:33:52.720Z,137.47
2022-10-11T16:36:32.638Z,136.63
2022-10-11T16:39:01.323Z,137.73
2022-10-11T16:41:29.173Z,137.47
2022-10-11T16:43:57.440Z,136.83
2022-10-11T16:46:25.703Z,136.47
2022-10-11T16:48:56.686Z,137.03
2022-10-11T16:51:25.213Z,137.30
2022-10-11T16:53:53.493Z,136.50
2022-10-11T16:56:22.562Z,137.07
2022-10-11T16:58:51.346Z,136.67
2022-10-11T17:01:19.589Z,136.90
2022-10-11T17:03:47.484Z,137.40
2022-10-11T17:06:16.603Z,137.47
2022-10-11T17:08:44.378Z,137.67
2022-10-11T17:11:12.166Z,136.97
2022-10-11T17:13:40.012Z,137.20
2022-10-11T17:16:08.986Z,137.63
2022-10-11T17:18:37.451Z,137.13
2022-10-11T17:21:07.538Z,137.70
2022-10-11T17:23:36.886Z,137.47
2022-10-11T17:26:10.975Z,137.77
2022-10-11T17:28:39.655Z,137.07
2022-10-11T17:31:08.709Z,138.20
2022-10-11T17:33:37.071Z,137.27
2022-10-11T17:36:15.356Z,137.17
2022-10-11T17:38:44.482Z,138.07
2022-10-11T17:41:12.747Z,138.07
2022-10-11T17:43:40.728Z,137.53
2022-10-11T17:46:09.421Z,137.83
2022-10-11T17:48:39.144Z,137.70
2022-10-11T17:51:08.903Z,138.07
2022-10-11T17:53:37.421Z,138.17
2022-10-11T17:56:07.992Z,137.53
2022-10-11T17:58:36.043Z,137.27
2022-10-11T18:01:05.229Z,137.47
2022-10-11T18:03:33.719Z,137.40
2022-10-11T18:06:04.186Z,137.17
2022-10-11T18:08:35.308Z,137.77
2022-10-11T18:11:10.008Z,137.60
2022-10-11T18:13:37.853Z,137.77
2022-10-11T18:16:06.407Z,137.27
2022-10-11T18:18:34.463Z,137.37
2022-10-11T18:21:02.238Z,137.40
2022-10-11T18:23:30.056Z,137.23
2022-10-11T18:25:57.855Z,137.30
2022-10-11T18:28:27.030Z,137.83
2022-10-11T18:30:56.025Z,137.47
2022-10-11T18:33:23.826Z,137.60
2022-10-11T18:36:00.199Z,137.03
2022-10-11T18:38:27.976Z,137.77
2022-10-11T18:40:55.739Z,137.43
2022-10-11T18:43:23.606Z,137.70
2022-10-11T18:45:52.699Z,137.03
2022-10-11T18:48:20.455Z,137.57
2022-10-11T18:50:49.498Z,137.87
2022-10-11T18:53:17.292Z,137.37
2022-10-11T18:55:45.036Z,136.83
2022-10-11T18:58:12.792Z,137.43
2022-10-11T19:00:41.540Z,137.33
2022-10-11T19:03:10.877Z,137.07
2022-10-11T19:05:39.679Z,137.77
2022-10-11T19:08:07.521Z,137.57
2022-10-11T19:10:35.291Z,138.07
2022-10-11T19:13:03.080Z,138.47
2022-10-11T19:15:30.880Z,137.07
2022-10-11T19:17:58.641Z,137.30
2022-10-11T19:20:27.759Z,137.20
2022-10-11T19:22:55.552Z,137.40
2022-10-11T19:25:24.202Z,137.60
2022-10-11T19:27:51.974Z,138.03
2022-10-11T19:30:19.748Z,137.70
2022-10-11T19:32:47.539Z,137.83
2022-10-11T19:35:19.822Z,137.00
2022-10-11T19:37:49.283Z,137.67
2022-10-11T19:40:17.099Z,137.40
2022-10-11T19:42:44.881Z,137.33
2022-10-11T19:45:12.636Z,136.97
2022-10-11T19:47:40.452Z,136.57
2022-10-11T19:50:09.147Z,137.13
2022-10-11T19:52:40.358Z,136.43
2022-10-11T19:55:12.144Z,136.73
2022-10-11T19:57:39.940Z,136.87
2022-10-11T20:00:09.028Z,136.53
2022-10-11T20:02:36.843Z,136.57
2022-10-11T20:05:05.099Z,136.57
2022-10-11T20:07:33.112Z,136.03
2022-10-11T20:10:01.100Z,136.27
2022-10-11T20:12:30.535Z,135.67
2022-10-11T20:14:58.733Z,135.80
2022-10-11T20:17:46.633Z,136.57
2022-10-11T20:20:14.583Z,136.17
2022-10-11T20:22:42.392Z,136.27
2022-10-11T20:25:10.561Z,135.13
2022-10-11T20:27:42.360Z,136.17
2022-10-11T20:30:12.147Z,135.93
2022-10-11T20:32:39.939Z,135.67
2022-10-11T20:35:09.324Z,135.67
2022-10-11T20:37:37.968Z,135.57
2022-10-11T20:40:06.157Z,136.40
2022-10-11T20:42:34.035Z,136.10
2022-10-11T20:45:03.152Z,135.57
2022-10-11T20:47:31.344Z,136.47
2022-10-11T20:49:59.448Z,135.97
2022-10-11T20:52:27.283Z,135.73
2022-10-11T20:54:55.088Z,135.73
2022-10-11T20:57:22.847Z,135.53
2022-10-11T20:59:50.600Z,135.80
2022-10-11T21:02:19.736Z,136.03
2022-10-11T21:04:47.511Z,135.63
2022-10-11T21:07:15.286Z,135.50
2022-10-11T21:09:43.070Z,135.83
2022-10-11T21:12:10.838Z,135.70
2022-10-11T21:14:38.595Z,135.50
2022-10-11T21:17:06.367Z,135.63
2022-10-11T21:19:35.480Z,135.43
2022-10-11T21:22:03.552Z,134.83
2022-10-11T21:24:31.420Z,135.20
2022-10-11T21:27:00.812Z,135.93
2022-10-11T21:29:28.798Z,135.13
2022-10-11T21:31:56.628Z,135.90
2022-10-11T21:34:24.425Z,135.13
2022-10-11T21:36:53.546Z,135.83
2022-10-11T21:39:21.548Z,135.57
2022-10-11T21:41:49.316Z,135.20
2022-10-11T21:44:17.165Z,135.67
2022-10-11T21:49:32.703Z,135.30
2022-10-11T21:52:01.902Z,135.37
2022-10-11T21:54:29.706Z,135.50
2022-10-11T21:56:57.500Z,134.97
2022-10-11T21:59:25.242Z,135.63
2022-10-11T22:01:55.054Z,135.33
2022-10-11T22:04:26.034Z,135.03
2022-10-11T22:06:53.806Z,135.07
2022-10-11T22:09:22.982Z,135.33
2022-10-11T22:11:50.752Z,135.03
2022-10-11T22:14:18.982Z,135.10
2022-10-11T22:16:46.748Z,135.53
2022-10-11T22:19:14.526Z,135.07
2022-10-11T22:21:45.094Z,135.00
2022-10-11T22:24:13.276Z,134.60
2022-10-11T22:26:42.407Z,135.07
2022-10-11T22:29:10.454Z,135.00
2022-10-11T22:31:38.227Z,135.20
2022-10-11T22:34:06.018Z,134.47
2022-10-11T22:36:33.867Z,134.97
2022-10-11T22:39:02.671Z,134.97
2022-10-11T22:41:30.448Z,134.63
2022-10-11T22:43:59.576Z,135.13
2022-10-11T22:46:27.358Z,134.87
2022-10-11T22:48:55.166Z,134.67
2022-10-11T22:51:22.979Z,135.53
2022-10-11T22:53:50.775Z,134.53
2022-10-11T22:56:18.548Z,135.07
2022-10-11T22:58:46.397Z,134.57
2022-10-11T23:01:16.870Z,134.80
2022-10-11T23:03:48.063Z,134.40
2022-10-11T23:06:15.891Z,134.33
2022-10-11T23:08:44.294Z,134.30
2022-10-11T23:11:12.609Z,135.37
2022-10-11T23:13:40.474Z,134.63
2022-10-11T23:16:09.574Z,134.50
2022-10-11T23:18:39.444Z,134.37
2022-10-11T23:21:08.323Z,133.83
2022-10-11T23:23:36.401Z,134.23
2022-10-11T23:26:06.545Z,134.47
2022-10-11T23:28:34.588Z,134.30
2022-10-11T23:31:07.467Z,134.30
2022-10-11T23:33:35.352Z,134.63
2022-10-11T23:36:04.755Z,134.73
2022-10-11T23:38:32.549Z,134.07
2022-10-11T23:41:00.329Z,134.27
2022-10-11T23:43:28.587Z,133.87
2022-10-11T23:45:57.197Z,134.17
2022-10-11T23:48:25.052Z,134.30
2022-10-11T23:50:52.870Z,134.93
2022-10-11T23:53:21.998Z,134.80
2022-10-11T23:55:49.770Z,134.20
2022-10-11T23:58:17.549Z,134.57
